createdAt,value
2022-09-11T00:01:02.197Z,22.43
2022-09-11T00:03:30.086Z,22.41
2022-09-11T00:05:56.838Z,22.40
2022-09-11T00:08:23.364Z,22.37
2022-09-11T00:10:50.137Z,22.35
2022-09-11T00:13:22.526Z,22.38
2022-09-11T00:15:51.105Z,22.32
2022-09-11T00:18:21.843Z,22.32
2022-09-11T00:20:53.384Z,22.36
2022-09-11T00:23:21.808Z,22.28
2022-09-11T00:25:48.996Z,22.27
2022-09-11T00:28:19.841Z,22.27
2022-09-11T00:30:47.497Z,22.24
2022-09-11T00:33:15.704Z,22.23
2022-09-11T00:35:42.699Z,22.22
2022-09-11T00:38:12.098Z,22.23
2022-09-11T00:40:50.361Z,22.32
2022-09-11T00:43:17.813Z,22.26
2022-09-11T00:45:48.527Z,22.27
2022-09-11T00:48:20.360Z,22.31
2022-09-11T00:50:48.159Z,22.26
2022-09-11T00:53:17.926Z,22.28
2022-09-11T00:55:50.946Z,22.30
2022-09-11T00:58:23.786Z,22.28
2022-09-11T01:00:54.027Z,22.26
2022-09-11T01:03:20.733Z,22.22
2022-09-11T01:05:48.336Z,22.20
2022-09-11T01:08:15.305Z,22.18
2022-09-11T01:11:21.694Z,22.30
2022-09-11T01:13:55.122Z,22.18
2022-09-11T01:16:28.425Z,22.23
2022-09-11T01:19:24.490Z,22.29
2022-09-11T01:22:06.220Z,22.21
2022-09-11T01:24:59.990Z,22.25
2022-09-11T01:27:31.114Z,22.15
2022-09-11T01:30:05.427Z,22.14
2022-09-11T01:32:55.515Z,22.23
2022-09-11T01:35:29.371Z,22.13
2022-09-11T01:38:01.789Z,22.09
2022-09-11T01:40:36.813Z,22.06
2022-09-11T01:43:07.220Z,22.05
2022-09-11T01:45:37.272Z,22.05
2022-09-11T01:48:07.819Z,22.05
2022-09-11T01:50:37.037Z,22.03
2022-09-11T01:53:06.721Z,22.06
2022-09-11T01:55:46.331Z,22.12
2022-09-11T01:58:23.053Z,22.09
2022-09-11T02:00:55.564Z,22.08
2022-09-11T02:03:30.106Z,22.04
2022-09-11T02:06:04.740Z,22.03
2022-09-11T02:08:47.218Z,22.07
2022-09-11T02:11:15.292Z,21.96
2022-09-11T02:13:52.356Z,21.94
2022-09-11T02:16:29.924Z,22.05
2022-09-11T02:19:01.736Z,21.97
2022-09-11T02:21:29.046Z,21.91
2022-09-11T02:23:55.963Z,21.88
2022-09-11T02:26:25.899Z,21.89
2022-09-11T02:28:53.778Z,21.83
2022-09-11T02:31:21.609Z,21.80
2022-09-11T02:33:49.515Z,21.76
2022-09-11T02:36:38.454Z,21.80
2022-09-11T02:39:32.771Z,21.87
2022-09-11T02:42:38.328Z,21.85
2022-09-11T02:45:14.783Z,21.74
2022-09-11T02:47:59.700Z,21.83
2022-09-11T02:50:57.012Z,21.83
2022-09-11T02:53:38.781Z,21.79
2022-09-11T02:56:13.214Z,21.71
2022-09-11T02:58:46.859Z,21.69
2022-09-11T03:01:13.519Z,21.62
2022-09-11T03:03:45.277Z,21.62
2022-09-11T03:06:19.046Z,21.63
2022-09-11T03:08:45.821Z,21.59
2022-09-11T03:11:15.366Z,21.58
2022-09-11T03:13:42.139Z,21.58
2022-09-11T03:16:08.733Z,21.59
2022-09-11T03:18:35.749Z,21.56
2022-09-11T03:21:03.776Z,21.54
2022-09-11T03:23:30.957Z,21.52
2022-09-11T03:25:58.783Z,21.49
2022-09-11T03:28:25.361Z,21.46
2022-09-11T03:30:55.077Z,21.42
2022-09-11T03:33:21.872Z,21.43
2022-09-11T03:35:48.336Z,21.40
2022-09-11T03:38:15.808Z,21.77
2022-09-11T03:40:43.598Z,21.43
2022-09-11T03:43:12.395Z,21.38
2022-09-11T03:45:39.459Z,21.34
2022-09-11T03:48:06.622Z,21.30
2022-09-11T03:50:34.308Z,21.26
2022-09-11T03:53:01.020Z,21.22
2022-09-11T03:55:27.601Z,21.17
2022-09-11T03:57:54.191Z,21.13
2022-09-11T04:00:20.826Z,21.09
2022-09-11T04:02:47.343Z,21.05
2022-09-11T04:05:13.805Z,21.40
2022-09-11T04:07:40.306Z,21.02
2022-09-11T04:10:06.900Z,21.36
2022-09-11T04:12:33.826Z,21.01
2022-09-11T04:15:00.385Z,20.93
2022-09-11T04:17:29.690Z,20.94
2022-09-11T04:19:56.249Z,20.87
2022-09-11T04:22:24.414Z,20.86
2022-09-11T04:24:52.059Z,20.86
2022-09-11T04:27:19.074Z,20.85
2022-09-11T04:29:46.245Z,20.88
2022-09-11T04:32:13.339Z,20.88
2022-09-11T04:34:39.878Z,20.90
2022-09-11T04:37:06.380Z,20.93
2022-09-11T04:39:34.229Z,21.29
2022-09-11T04:42:02.093Z,21.00
2022-09-11T04:44:29.278Z,20.97
2022-09-11T04:46:56.397Z,20.98
2022-09-11T04:49:23.435Z,20.96
2022-09-11T04:51:50.626Z,20.96
2022-09-11T04:54:21.397Z,20.97
2022-09-11T04:56:48.965Z,20.97
2022-09-11T04:59:22.428Z,21.02
2022-09-11T05:01:49.382Z,20.98
2022-09-11T05:04:21.720Z,20.99
2022-09-11T05:06:49.543Z,21.01
2022-09-11T05:09:17.799Z,21.04
2022-09-11T05:11:44.376Z,21.05
2022-09-11T05:14:11.778Z,21.08
2022-09-11T05:16:39.829Z,21.10
2022-09-11T05:19:06.732Z,21.13
2022-09-11T05:21:33.779Z,21.16
2022-09-11T05:24:02.102Z,21.21
2022-09-11T05:26:31.981Z,21.27
2022-09-11T05:29:00.808Z,21.28
2022-09-11T05:31:29.140Z,21.30
2022-09-11T05:33:56.632Z,21.31
2022-09-11T05:36:26.393Z,21.33
2022-09-11T05:38:53.717Z,21.35
2022-09-11T05:41:21.189Z,21.38
2022-09-11T05:43:47.865Z,21.39
2022-09-11T05:46:19.069Z,21.47
2022-09-11T05:48:45.870Z,21.41
2022-09-11T05:51:15.781Z,21.41
2022-09-11T05:53:42.546Z,21.37
2022-09-11T05:56:12.921Z,21.38
2022-09-11T05:58:39.725Z,21.36
2022-09-11T06:01:17.760Z,21.44
2022-09-11T06:03:45.269Z,21.32
2022-09-11T06:06:12.893Z,21.32
2022-09-11T06:08:43.273Z,21.32
2022-09-11T06:11:10.778Z,21.32
2022-09-11T06:13:39.657Z,21.31
2022-09-11T06:16:18.789Z,21.37
2022-09-11T06:18:49.586Z,21.29
2022-09-11T06:21:20.400Z,21.28
2022-09-11T06:23:48.783Z,21.27
2022-09-11T06:26:17.302Z,21.27
2022-09-11T06:28:44.147Z,21.26
2022-09-11T06:31:12.978Z,21.31
2022-09-11T06:33:41.046Z,21.29
2022-09-11T06:36:11.159Z,21.33
2022-09-11T06:38:40.561Z,21.32
2022-09-11T06:41:12.826Z,21.35
2022-09-11T06:43:40.212Z,21.36
2022-09-11T06:46:19.133Z,21.48
2022-09-11T06:48:47.908Z,21.40
2022-09-11T06:51:20.282Z,21.49
2022-09-11T06:53:48.923Z,21.45
2022-09-11T06:56:17.757Z,21.48
2022-09-11T06:58:45.415Z,21.47
2022-09-11T07:01:17.504Z,21.54
2022-09-11T07:03:45.501Z,21.49
2022-09-11T07:06:16.837Z,21.49
2022-09-11T07:08:44.090Z,21.50
2022-09-11T07:11:14.305Z,21.48
2022-09-11T07:13:41.108Z,21.45
2022-09-11T07:16:09.882Z,21.44
2022-09-11T07:18:41.799Z,21.49
2022-09-11T07:21:18.509Z,21.49
2022-09-11T07:23:49.532Z,21.49
2022-09-11T07:26:17.109Z,21.42
2022-09-11T07:28:43.663Z,21.41
2022-09-11T07:31:20.713Z,21.44
2022-09-11T07:33:49.440Z,21.40
2022-09-11T07:36:27.392Z,21.48
2022-09-11T07:38:55.169Z,21.37
2022-09-11T07:41:23.616Z,21.39
2022-09-11T07:43:55.912Z,21.45
2022-09-11T07:46:24.438Z,21.39
2022-09-11T07:48:50.964Z,21.41
2022-09-11T07:51:19.096Z,21.43
2022-09-11T07:53:51.045Z,21.43
2022-09-11T07:56:20.624Z,21.42
2022-09-11T07:58:48.055Z,21.35
2022-09-11T08:01:17.396Z,21.32
2022-09-11T08:03:45.002Z,21.25
2022-09-11T08:06:14.796Z,21.20
2022-09-11T08:08:43.704Z,21.15
2022-09-11T08:11:16.459Z,21.17
2022-09-11T08:13:43.732Z,21.06
2022-09-11T08:16:10.520Z,21.03
2022-09-11T08:18:37.268Z,20.97
2022-09-11T08:21:13.313Z,21.02
2022-09-11T08:23:42.171Z,20.94
2022-09-11T08:26:17.640Z,20.89
2022-09-11T08:28:45.106Z,20.83
2022-09-11T08:31:13.252Z,20.79
2022-09-11T08:33:39.933Z,20.75
2022-09-11T08:36:10.197Z,20.73
2022-09-11T08:38:38.030Z,20.66
2022-09-11T08:41:36.835Z,20.78
2022-09-11T08:44:09.048Z,20.60
2022-09-11T08:46:39.949Z,20.59
2022-09-11T08:49:26.186Z,20.68
2022-09-11T08:52:01.034Z,20.57
2022-09-11T08:54:31.991Z,20.52
2022-09-11T08:57:16.785Z,20.57
2022-09-11T08:59:54.079Z,20.48
2022-09-11T09:02:42.106Z,20.63
2022-09-11T09:05:20.550Z,20.57
2022-09-11T09:07:56.341Z,20.60
2022-09-11T09:10:45.077Z,20.61
2022-09-11T09:13:56.286Z,20.74
2022-09-11T09:16:46.422Z,20.76
2022-09-11T09:19:25.626Z,20.72
2022-09-11T09:22:19.114Z,20.73
2022-09-11T09:24:53.787Z,20.72
2022-09-11T09:27:29.103Z,20.73
2022-09-11T09:30:02.235Z,20.78
2022-09-11T09:32:40.868Z,20.80
2022-09-11T09:35:21.340Z,20.85
2022-09-11T09:37:51.672Z,20.78
2022-09-11T09:40:19.162Z,20.78
2022-09-11T09:42:58.687Z,20.89
2022-09-11T09:45:58.586Z,20.87
2022-09-11T09:48:27.896Z,20.83
2022-09-11T09:50:57.684Z,20.84
2022-09-11T09:53:27.625Z,20.87
2022-09-11T09:55:56.920Z,20.84
2022-09-11T09:58:27.122Z,20.88
2022-09-11T10:00:53.622Z,20.87
2022-09-11T10:03:24.191Z,21.23
2022-09-11T10:05:53.956Z,20.95
2022-09-11T10:08:34.819Z,21.01
2022-09-11T10:11:04.482Z,20.92
2022-09-11T10:13:38.257Z,20.96
2022-09-11T10:16:19.450Z,21.01
2022-09-11T10:18:47.175Z,20.92
2022-09-11T10:21:15.016Z,20.95
2022-09-11T10:23:47.540Z,21.01
2022-09-11T10:26:26.763Z,21.11
2022-09-11T10:28:55.000Z,21.06
2022-09-11T10:31:22.920Z,21.11
2022-09-11T10:33:56.595Z,21.19
2022-09-11T10:36:25.634Z,21.24
2022-09-11T10:38:53.020Z,21.31
2022-09-11T10:41:23.683Z,21.41
2022-09-11T10:44:02.183Z,21.48
2022-09-11T10:46:39.179Z,21.59
2022-09-11T10:49:05.617Z,21.64
2022-09-11T10:51:39.206Z,21.99
2022-09-11T10:54:21.446Z,21.85
2022-09-11T10:56:57.878Z,21.89
2022-09-11T10:59:27.611Z,21.84
2022-09-11T11:01:54.759Z,21.85
2022-09-11T11:04:22.936Z,21.86
2022-09-11T11:06:52.240Z,21.88
2022-09-11T11:09:31.339Z,21.96
2022-09-11T11:12:17.408Z,22.00
2022-09-11T11:15:03.716Z,21.99
2022-09-11T11:17:40.679Z,22.03
2022-09-11T11:20:10.304Z,22.31
2022-09-11T11:22:58.704Z,22.16
2022-09-11T11:25:31.414Z,22.08
2022-09-11T11:28:34.204Z,22.12
2022-09-11T11:31:06.737Z,22.07
2022-09-11T11:33:42.913Z,22.03
2022-09-11T11:36:16.901Z,22.08
2022-09-11T11:39:07.729Z,22.18
2022-09-11T11:41:44.613Z,22.08
2022-09-11T11:44:12.945Z,22.40
2022-09-11T11:46:46.116Z,22.17
2022-09-11T11:49:19.521Z,22.15
2022-09-11T11:52:13.182Z,22.24
2022-09-11T11:54:49.607Z,22.18
2022-09-11T11:57:22.469Z,22.19
2022-09-11T12:00:10.035Z,22.20
2022-09-11T12:02:50.473Z,22.20
2022-09-11T12:05:24.901Z,22.22
2022-09-11T12:07:51.945Z,22.20
2022-09-11T12:10:22.537Z,22.29
2022-09-11T12:12:54.189Z,22.33
2022-09-11T12:15:25.549Z,22.38
2022-09-11T12:18:01.851Z,22.46
2022-09-11T12:20:32.800Z,22.52
2022-09-11T12:23:00.783Z,22.53
2022-09-11T12:25:31.206Z,22.64
2022-09-11T12:28:19.938Z,22.77
2022-09-11T12:31:24.961Z,22.81
2022-09-11T12:33:54.582Z,22.80
2022-09-11T12:36:33.339Z,22.89
2022-09-11T12:39:03.998Z,22.87
2022-09-11T12:41:35.692Z,22.91
2022-09-11T12:44:04.972Z,22.88
2022-09-11T12:46:31.414Z,22.86
2022-09-11T12:49:21.994Z,22.87
2022-09-11T12:51:55.239Z,22.93
2022-09-11T12:54:24.224Z,22.92
2022-09-11T12:56:59.328Z,22.92
2022-09-11T12:59:31.975Z,22.95
2022-09-11T13:01:59.822Z,22.92
2022-09-11T13:04:31.312Z,22.93
2022-09-11T13:07:04.141Z,22.93
2022-09-11T13:09:49.708Z,23.05
2022-09-11T13:12:19.173Z,22.96
2022-09-11T13:14:58.509Z,22.96
2022-09-11T13:17:45.346Z,22.98
2022-09-11T13:20:22.937Z,23.06
2022-09-11T13:22:56.167Z,22.96
2022-09-11T13:25:28.091Z,22.97
2022-09-11T13:27:59.637Z,23.01
2022-09-11T13:30:27.027Z,23.00
2022-09-11T13:33:07.810Z,23.14
2022-09-11T13:35:40.383Z,23.15
2022-09-11T13:38:13.117Z,23.24
2022-09-11T13:41:14.318Z,23.50
2022-09-11T13:43:48.608Z,23.59
2022-09-11T13:46:15.323Z,23.70
2022-09-11T13:48:43.590Z,23.84
2022-09-11T13:51:15.123Z,24.04
2022-09-11T13:53:44.802Z,24.16
2022-09-11T13:56:47.354Z,24.43
2022-09-11T13:59:39.450Z,24.58
2022-09-11T14:02:33.390Z,24.70
2022-09-11T14:05:27.240Z,24.89
2022-09-11T14:08:07.592Z,25.02
2022-09-11T14:11:00.891Z,25.18
2022-09-11T14:13:35.973Z,25.23
2022-09-11T14:16:14.435Z,25.34
2022-09-11T14:18:46.303Z,25.37
2022-09-11T14:21:17.175Z,25.42
2022-09-11T14:23:48.301Z,25.48
2022-09-11T14:26:16.051Z,25.51
2022-09-11T14:28:51.691Z,25.63
2022-09-11T14:31:38.965Z,25.70
2022-09-11T14:34:05.327Z,25.95
2022-09-11T14:36:32.349Z,25.77
2022-09-11T14:39:00.046Z,25.76
2022-09-11T14:41:26.558Z,25.77
2022-09-11T14:43:53.232Z,25.78
2022-09-11T14:46:19.753Z,25.80
2022-09-11T14:48:46.901Z,25.84
2022-09-11T14:51:13.916Z,25.88
2022-09-11T14:53:43.675Z,25.92
2022-09-11T14:56:10.464Z,25.97
2022-09-11T14:58:36.981Z,25.98
2022-09-11T15:01:03.572Z,26.00
2022-09-11T15:03:31.083Z,26.01
2022-09-11T15:05:58.706Z,26.02
2022-09-11T15:08:25.912Z,26.01
2022-09-11T15:10:53.635Z,25.98
2022-09-11T15:13:21.276Z,25.95
2022-09-11T15:15:47.917Z,25.91
2022-09-11T15:18:14.785Z,25.91
2022-09-11T15:20:41.313Z,25.90
2022-09-11T15:23:07.921Z,25.87
2022-09-11T15:25:34.421Z,25.86
2022-09-11T15:28:01.281Z,25.84
2022-09-11T15:30:28.039Z,25.81
2022-09-11T15:32:55.023Z,25.79
2022-09-11T15:35:23.262Z,25.77
2022-09-11T15:37:50.840Z,25.77
2022-09-11T15:40:18.160Z,25.77
2022-09-11T15:42:45.089Z,25.79
2022-09-11T15:45:12.963Z,25.80
2022-09-11T16:12:58.899Z,26.26
2022-09-11T16:15:25.594Z,25.90
2022-09-11T16:17:51.998Z,25.86
2022-09-11T16:20:18.513Z,25.81
2022-09-11T16:22:45.512Z,25.76
2022-09-11T16:25:12.166Z,25.72
2022-09-11T16:27:45.541Z,25.70
2022-09-11T16:33:02.399Z,25.55
2022-09-11T16:35:30.656Z,25.50
2022-09-11T16:37:57.604Z,25.43
2022-09-11T16:40:24.017Z,25.38
2022-09-11T16:42:50.471Z,25.33
2022-09-11T16:45:17.021Z,25.27
2022-09-11T16:47:43.793Z,25.22
2022-09-11T16:50:10.318Z,25.17
2022-09-11T16:52:38.063Z,25.12
2022-09-11T16:55:07.047Z,25.09
2022-09-11T16:57:34.535Z,25.05
2022-09-11T17:00:01.018Z,25.01
2022-09-11T17:02:27.516Z,24.94
2022-09-11T17:04:53.963Z,24.90
2022-09-11T17:07:20.859Z,24.84
2022-09-11T17:09:47.403Z,24.78
2022-09-11T17:12:15.253Z,24.72
2022-09-11T17:14:41.678Z,24.65
2022-09-11T17:17:10.399Z,24.60
2022-09-11T17:19:36.840Z,24.55
2022-09-11T17:22:03.923Z,24.49
2022-09-11T17:24:31.909Z,24.43
2022-09-11T17:26:58.380Z,24.39
2022-09-11T17:29:24.884Z,24.33
2022-09-11T17:32:05.142Z,24.27
2022-09-11T17:34:37.836Z,24.24
2022-09-11T17:37:04.732Z,24.18
2022-09-11T17:39:31.240Z,24.12
2022-09-11T17:41:59.981Z,24.05
2022-09-11T17:44:26.443Z,23.97
2022-09-11T17:46:52.896Z,23.90
2022-09-11T17:49:21.030Z,23.83
2022-09-11T17:51:47.485Z,23.77
2022-09-11T17:54:13.932Z,23.71
2022-09-11T17:56:42.378Z,23.65
2022-09-11T17:59:09.294Z,23.62
2022-09-11T18:01:35.886Z,23.57
2022-09-11T18:04:02.720Z,23.53
2022-09-11T18:06:36.188Z,23.57
2022-09-11T18:09:13.796Z,23.51
2022-09-11T18:11:42.749Z,23.44
2022-09-11T18:14:10.407Z,23.40
2022-09-11T18:16:37.793Z,23.35
2022-09-11T18:19:05.527Z,23.31
2022-09-11T18:21:38.323Z,23.26
2022-09-11T18:24:06.420Z,23.23
2022-09-11T18:26:39.479Z,23.19
2022-09-11T18:29:10.470Z,23.14
2022-09-11T18:31:40.020Z,23.10
2022-09-11T18:37:30.696Z,23.01
2022-09-11T18:39:57.264Z,22.95
2022-09-11T18:42:23.926Z,22.89
2022-09-11T18:44:50.498Z,22.86
2022-09-11T18:47:20.718Z,22.81
2022-09-11T18:49:51.119Z,22.79
2022-09-11T18:52:21.563Z,22.75
2022-09-11T18:54:50.607Z,22.72
2022-09-11T18:57:17.185Z,22.68
2022-09-11T18:59:48.842Z,22.63
2022-09-11T19:02:16.218Z,22.57
2022-09-11T19:04:45.646Z,22.51
2022-09-11T19:07:15.978Z,22.44
2022-09-11T19:09:45.786Z,22.37
2022-09-11T19:12:12.688Z,22.34
2022-09-11T19:14:42.337Z,22.28
2022-09-11T19:17:08.829Z,22.24
2022-09-11T19:19:35.598Z,22.20
2022-09-11T19:22:02.042Z,22.16
2022-09-11T19:24:30.088Z,22.57
2022-09-11T19:26:57.135Z,22.15
2022-09-11T19:29:23.571Z,22.07
2022-09-11T19:31:50.055Z,22.48
2022-09-11T19:34:16.959Z,22.05
2022-09-11T19:36:43.518Z,21.97
2022-09-11T19:39:15.445Z,21.90
2022-09-11T19:41:42.074Z,21.85
2022-09-11T19:44:15.531Z,21.83
2022-09-11T19:46:43.017Z,21.75
2022-09-11T19:49:13.639Z,21.72
2022-09-11T19:51:42.506Z,21.70
2022-09-11T19:54:14.495Z,21.69
2022-09-11T19:56:42.497Z,21.61
2022-09-11T19:59:09.106Z,21.55
2022-09-11T20:01:35.980Z,21.50
2022-09-11T20:04:08.116Z,21.50
2022-09-11T20:06:37.482Z,21.36
2022-09-11T20:11:56.018Z,21.27
2022-09-11T20:14:25.640Z,21.21
2022-09-11T20:16:52.196Z,21.16
2022-09-11T20:19:21.010Z,21.12
2022-09-11T20:21:47.529Z,21.08
2022-09-11T20:24:17.556Z,21.47
2022-09-11T20:26:46.945Z,21.13
2022-09-11T20:29:15.978Z,21.05
2022-09-11T20:31:48.731Z,21.03
2022-09-11T20:34:19.838Z,21.01
2022-09-11T20:36:47.451Z,20.98
2022-09-11T20:39:15.437Z,20.95
2022-09-11T20:41:45.948Z,20.92
2022-09-11T20:44:12.477Z,20.88
2022-09-11T20:46:39.020Z,21.27
2022-09-11T20:49:06.036Z,20.90
2022-09-11T20:51:33.555Z,20.80
2022-09-11T20:54:02.749Z,20.74
2022-09-11T20:56:29.739Z,20.70
2022-09-11T20:58:56.684Z,20.67
2022-09-11T21:01:27.546Z,20.64
2022-09-11T21:03:56.592Z,20.64
2022-09-11T21:06:30.274Z,20.63
2022-09-11T21:09:06.506Z,20.63
2022-09-11T21:11:33.448Z,20.58
2022-09-11T21:14:00.598Z,20.59
2022-09-11T21:16:27.179Z,20.60
2022-09-11T21:18:56.432Z,20.66
2022-09-11T21:21:23.821Z,20.71
2022-09-11T21:23:54.371Z,20.81
2022-09-11T21:26:20.891Z,20.84
2022-09-11T21:28:47.435Z,20.90
2022-09-11T21:31:14.019Z,20.95
2022-09-11T21:33:41.333Z,21.01
2022-09-11T21:36:07.999Z,21.06
2022-09-11T21:38:36.206Z,21.10
2022-09-11T21:41:04.953Z,21.17
2022-09-11T21:43:31.665Z,21.21
2022-09-11T21:45:58.395Z,21.24
2022-09-11T21:48:24.974Z,21.29
2022-09-11T21:50:51.775Z,21.32
2022-09-11T21:53:19.265Z,21.34
2022-09-11T21:55:47.218Z,21.37
2022-09-11T21:58:17.150Z,21.44
2022-09-11T22:00:44.463Z,21.43
2022-09-11T22:03:12.731Z,21.46
2022-09-11T22:05:43.498Z,21.46
2022-09-11T22:08:14.821Z,21.54
2022-09-11T22:10:46.773Z,21.56
2022-09-11T22:13:13.690Z,21.52
2022-09-11T22:15:48.517Z,21.57
2022-09-11T22:18:16.107Z,21.53
2022-09-11T22:20:43.075Z,21.53
2022-09-11T22:23:15.070Z,21.60
2022-09-11T22:25:41.799Z,21.55
2022-09-11T22:28:08.780Z,21.55
2022-09-11T22:30:35.344Z,21.55
2022-09-11T22:33:02.020Z,21.55
2022-09-11T22:35:28.910Z,21.54
2022-09-11T22:37:55.616Z,21.55
2022-09-11T22:40:22.132Z,21.53
2022-09-11T22:42:49.916Z,21.53
2022-09-11T22:45:17.211Z,21.53
2022-09-11T22:47:43.748Z,21.52
2022-09-11T22:50:10.388Z,21.51
2022-09-11T22:52:37.463Z,21.52
2022-09-11T22:55:06.139Z,21.51
2022-09-11T22:57:35.011Z,21.53
2022-09-11T23:00:02.724Z,21.49
2022-09-11T23:02:29.292Z,21.49
2022-09-11T23:05:14.471Z,21.48
2022-09-11T23:07:41.180Z,21.50
2022-09-11T23:10:09.778Z,21.48
2022-09-11T23:12:37.349Z,21.46
2022-09-11T23:15:04.579Z,21.45
2022-09-11T23:17:31.057Z,21.43
2022-09-11T23:19:57.444Z,21.81
2022-09-11T23:22:24.150Z,21.49
2022-09-11T23:24:50.608Z,21.43
2022-09-11T23:27:17.014Z,21.80
2022-09-11T23:29:43.482Z,21.44
2022-09-11T23:32:09.963Z,21.79
2022-09-11T23:34:36.424Z,21.45
2022-09-11T23:37:02.891Z,21.78
2022-09-11T23:39:29.350Z,21.43
2022-09-11T23:41:55.735Z,21.75
2022-09-11T23:44:22.225Z,21.39
2022-09-11T23:46:48.643Z,21.73
2022-09-11T23:49:15.448Z,21.36
2022-09-11T23:51:42.702Z,21.30
2022-09-11T23:54:09.281Z,21.27
2022-09-11T23:56:35.759Z,21.26
2022-09-11T23:59:02.177Z,21.62
